sensor_id;sensor_type;location;lat;lon;timestamp;pressure;altitude;pressure_sealevel;temperature;humidity
50977;BME280;36992;48.200;12.418;2023-02-10T00:01:24;98385.63;;;1.83;44.06
50977;BME280;36992;48.200;12.418;2023-02-10T00:03:51;98391.50;;;1.78;44.34
50977;BME280;36992;48.200;12.418;2023-02-10T00:06:20;98390.72;;;1.78;43.96
50977;BME280;36992;48.200;12.418;2023-02-10T00:08:50;98405.03;;;1.77;43.97
50977;BME280;36992;48.200;12.418;2023-02-10T00:11:17;98405.38;;;1.73;44.02
50977;BME280;36992;48.200;12.418;2023-02-10T00:13:44;98419.69;;;1.72;43.99
50977;BME280;36992;48.200;12.418;2023-02-10T00:16:13;98420.53;;;1.73;43.91
50977;BME280;36992;48.200;12.418;2023-02-10T00:18:40;98425.84;;;1.73;43.85
50977;BME280;36992;48.200;12.418;2023-02-10T00:21:08;98426.66;;;1.73;43.92
50977;BME280;36992;48.200;12.418;2023-02-10T00:23:37;98426.66;;;1.73;44.04
50977;BME280;36992;48.200;12.418;2023-02-10T00:26:03;98434.00;;;1.71;43.89
50977;BME280;36992;48.200;12.418;2023-02-10T00:28:31;98432.97;;;1.72;44.21
50977;BME280;36992;48.200;12.418;2023-02-10T00:30:58;98445.44;;;1.72;44.17
50977;BME280;36992;48.200;12.418;2023-02-10T00:33:25;98444.63;;;1.71;44.08
50977;BME280;36992;48.200;12.418;2023-02-10T00:35:51;98444.63;;;1.71;43.96
50977;BME280;36992;48.200;12.418;2023-02-10T00:38:18;98452.78;;;1.70;44.03
50977;BME280;36992;48.200;12.418;2023-02-10T00:40:46;98456.47;;;1.69;43.91
50977;BME280;36992;48.200;12.418;2023-02-10T00:43:12;98457.66;;;1.66;44.15
50977;BME280;36992;48.200;12.418;2023-02-10T00:45:38;98452.53;;;1.65;44.24
50977;BME280;36992;48.200;12.418;2023-02-10T00:48:05;98459.69;;;1.64;44.43
50977;BME280;36992;48.200;12.418;2023-02-10T00:50:31;98459.47;;;1.66;44.22
50977;BME280;36992;48.200;12.418;2023-02-10T00:52:58;98465.63;;;1.66;44.28
50977;BME280;36992;48.200;12.418;2023-02-10T00:55:24;98467.28;;;1.67;44.40
50977;BME280;36992;48.200;12.418;2023-02-10T00:57:52;98468.53;;;1.71;44.07
50977;BME280;36992;48.200;12.418;2023-02-10T01:00:19;98474.03;;;1.70;44.28
50977;BME280;36992;48.200;12.418;2023-02-10T01:02:45;98475.91;;;1.69;44.18
50977;BME280;36992;48.200;12.418;2023-02-10T01:05:11;98475.69;;;1.71;44.09
50977;BME280;36992;48.200;12.418;2023-02-10T01:07:38;98477.72;;;1.69;44.20
50977;BME280;36992;48.200;12.418;2023-02-10T01:10:05;98482.41;;;1.67;44.27
50977;BME280;36992;48.200;12.418;2023-02-10T01:12:31;98481.56;;;1.66;44.29
50977;BME280;36992;48.200;12.418;2023-02-10T01:14:59;98476.25;;;1.66;44.19
50977;BME280;36992;48.200;12.418;2023-02-10T01:17:25;98482.59;;;1.65;44.24
50977;BME280;36992;48.200;12.418;2023-02-10T01:19:52;98482.59;;;1.65;44.33
50977;BME280;36992;48.200;12.418;2023-02-10T01:22:18;98481.75;;;1.65;44.36
50977;BME280;36992;48.200;12.418;2023-02-10T01:24:45;98484.22;;;1.66;44.27
50977;BME280;36992;48.200;12.418;2023-02-10T01:27:11;98485.88;;;1.67;44.22
50977;BME280;36992;48.200;12.418;2023-02-10T01:29:37;98477.09;;;1.67;44.14
50977;BME280;36992;48.200;12.418;2023-02-10T01:32:05;98479.34;;;1.70;44.15
50977;BME280;36992;48.200;12.418;2023-02-10T01:34:32;98478.56;;;1.69;44.38
50977;BME280;36992;48.200;12.418;2023-02-10T01:36:58;98478.56;;;1.69;44.45
50977;BME280;36992;48.200;12.418;2023-02-10T01:39:25;98480.19;;;1.70;44.32
50977;BME280;36992;48.200;12.418;2023-02-10T01:41:51;98481.00;;;1.71;44.09
50977;BME280;36992;48.200;12.418;2023-02-10T01:45:10;98484.75;;;1.77;43.65
50977;BME280;36992;48.200;12.418;2023-02-10T01:47:40;98491.63;;;1.71;44.20
50977;BME280;36992;48.200;12.418;2023-02-10T01:50:07;98490.16;;;1.68;44.30
50977;BME280;36992;48.200;12.418;2023-02-10T01:52:33;98483.22;;;1.67;44.15
50977;BME280;36992;48.200;12.418;2023-02-10T01:55:03;98484.03;;;1.68;44.11
50977;BME280;36992;48.200;12.418;2023-02-10T01:57:30;98485.25;;;1.65;44.33
50977;BME280;36992;48.200;12.418;2023-02-10T01:59:58;98482.78;;;1.64;44.40
50977;BME280;36992;48.200;12.418;2023-02-10T02:02:26;98481.31;;;1.61;44.28
50977;BME280;36992;48.200;12.418;2023-02-10T02:04:58;98488.28;;;1.62;44.04
50977;BME280;36992;48.200;12.418;2023-02-10T02:07:27;98494.59;;;1.61;44.38
50977;BME280;36992;48.200;12.418;2023-02-10T02:09:55;98493.13;;;1.58;44.45
50977;BME280;36992;48.200;12.418;2023-02-10T02:12:27;98498.44;;;1.58;44.44
50977;BME280;36992;48.200;12.418;2023-02-10T02:15:00;98499.66;;;1.56;44.63
50977;BME280;36992;48.200;12.418;2023-02-10T02:17:33;98499.66;;;1.56;44.33
50977;BME280;36992;48.200;12.418;2023-02-10T02:20:27;98496.00;;;1.57;43.97
50977;BME280;36992;48.200;12.418;2023-02-10T02:23:28;98500.50;;;1.56;44.27
50977;BME280;36992;48.200;12.418;2023-02-10T02:26:19;98498.00;;;1.55;44.18
50977;BME280;36992;48.200;12.418;2023-02-10T02:29:09;98505.34;;;1.53;44.45
50977;BME280;36992;48.200;12.418;2023-02-10T02:31:52;98508.19;;;1.51;44.55
50977;BME280;36992;48.200;12.418;2023-02-10T02:34:29;98512.06;;;1.48;44.88
50977;BME280;36992;48.200;12.418;2023-02-10T02:37:01;98510.41;;;1.47;44.81
50977;BME280;36992;48.200;12.418;2023-02-10T02:39:29;98506.47;;;1.43;44.96
50977;BME280;36992;48.200;12.418;2023-02-10T02:42:06;98518.78;;;1.44;44.86
50977;BME280;36992;48.200;12.418;2023-02-10T02:44:38;98499.91;;;1.39;45.06
50977;BME280;36992;48.200;12.418;2023-02-10T02:47:13;98505.84;;;1.41;44.62
50977;BME280;36992;48.200;12.418;2023-02-10T02:49:48;98509.53;;;1.40;44.90
50977;BME280;36992;48.200;12.418;2023-02-10T02:52:23;98506.25;;;1.38;45.06
50977;BME280;36992;48.200;12.418;2023-02-10T02:54:58;98510.91;;;1.36;44.93
50977;BME280;36992;48.200;12.418;2023-02-10T02:57:32;98512.75;;;1.36;44.86
50977;BME280;36992;48.200;12.418;2023-02-10T03:00:05;98516.59;;;1.33;45.09
50977;BME280;36992;48.200;12.418;2023-02-10T03:02:38;98516.78;;;1.31;45.02
50977;BME280;36992;48.200;12.418;2023-02-10T03:05:06;98518.16;;;1.27;45.27
50977;BME280;36992;48.200;12.418;2023-02-10T03:07:33;98515.72;;;1.26;45.27
50977;BME280;36992;48.200;12.418;2023-02-10T03:10:00;98522.22;;;1.23;45.41
50977;BME280;36992;48.200;12.418;2023-02-10T03:12:26;98520.56;;;1.22;45.56
50977;BME280;36992;48.200;12.418;2023-02-10T03:14:53;98523.41;;;1.20;45.49
50977;BME280;36992;48.200;12.418;2023-02-10T03:17:19;98516.47;;;1.19;45.55
50977;BME280;36992;48.200;12.418;2023-02-10T03:19:47;98518.28;;;1.19;45.42
50977;BME280;36992;48.200;12.418;2023-02-10T03:22:13;98515.81;;;1.17;45.49
50977;BME280;36992;48.200;12.418;2023-02-10T03:24:40;98517.66;;;1.17;45.67
50977;BME280;36992;48.200;12.418;2023-02-10T03:27:07;98516.81;;;1.16;45.62
50977;BME280;36992;48.200;12.418;2023-02-10T03:29:33;98528.28;;;1.17;45.65
50977;BME280;36992;48.200;12.418;2023-02-10T03:32:00;98522.13;;;1.16;45.79
50977;BME280;36992;48.200;12.418;2023-02-10T03:34:27;98530.09;;;1.16;45.61
50977;BME280;36992;48.200;12.418;2023-02-10T03:36:54;98533.59;;;1.17;45.73
50977;BME280;36992;48.200;12.418;2023-02-10T03:39:21;98531.09;;;1.15;45.78
50977;BME280;36992;48.200;12.418;2023-02-10T03:41:47;98524.97;;;1.15;45.71
50977;BME280;36992;48.200;12.418;2023-02-10T03:44:14;98524.16;;;1.14;45.84
50977;BME280;36992;48.200;12.418;2023-02-10T03:46:40;98533.94;;;1.14;45.80
50977;BME280;36992;48.200;12.418;2023-02-10T03:49:07;98530.66;;;1.12;45.91
50977;BME280;36992;48.200;12.418;2023-02-10T03:51:33;98536.13;;;1.10;46.02
50977;BME280;36992;48.200;12.418;2023-02-10T03:54:01;98531.00;;;1.08;45.94
50977;BME280;36992;48.200;12.418;2023-02-10T03:56:28;98543.03;;;1.04;46.23
50977;BME280;36992;48.200;12.418;2023-02-10T03:58:54;98545.84;;;1.03;46.25
50977;BME280;36992;48.200;12.418;2023-02-10T04:01:21;98555.84;;;1.01;46.25
50977;BME280;36992;48.200;12.418;2023-02-10T04:03:47;98553.53;;;0.98;46.30
50977;BME280;36992;48.200;12.418;2023-02-10T04:06:14;98557.56;;;0.93;46.69
50977;BME280;36992;48.200;12.418;2023-02-10T04:08:40;98557.94;;;0.90;46.54
50977;BME280;36992;48.200;12.418;2023-02-10T04:11:08;98550.00;;;0.90;46.67
50977;BME280;36992;48.200;12.418;2023-02-10T04:13:37;98547.69;;;0.87;46.59
50977;BME280;36992;48.200;12.418;2023-02-10T04:16:04;98548.69;;;0.86;46.71
50977;BME280;36992;48.200;12.418;2023-02-10T04:18:31;98552.38;;;0.85;46.71
50977;BME280;36992;48.200;12.418;2023-02-10T04:20:58;98555.03;;;0.85;46.56
50977;BME280;36992;48.200;12.418;2023-02-10T04:23:26;98550.34;;;0.87;46.65
50977;BME280;36992;48.200;12.418;2023-02-10T04:25:52;98547.50;;;0.89;46.53
50977;BME280;36992;48.200;12.418;2023-02-10T04:28:20;98553.28;;;0.92;46.30
50977;BME280;36992;48.200;12.418;2023-02-10T04:30:50;98557.38;;;0.95;46.55
50977;BME280;36992;48.200;12.418;2023-02-10T04:33:16;98555.75;;;0.94;46.39
50977;BME280;36992;48.200;12.418;2023-02-10T04:35:43;98552.91;;;0.96;46.31
50977;BME280;36992;48.200;12.418;2023-02-10T04:38:10;98549.25;;;0.97;46.10
50977;BME280;36992;48.200;12.418;2023-02-10T04:40:36;98556.19;;;0.98;46.22
50977;BME280;36992;48.200;12.418;2023-02-10T04:43:04;98549.88;;;0.99;46.20
50977;BME280;36992;48.200;12.418;2023-02-10T04:45:32;98563.16;;;0.99;46.37
50977;BME280;36992;48.200;12.418;2023-02-10T04:47:59;98559.88;;;0.97;46.47
50977;BME280;36992;48.200;12.418;2023-02-10T04:50:25;98555.75;;;0.94;46.55
50977;BME280;36992;48.200;12.418;2023-02-10T04:52:52;98563.25;;;0.90;46.62
50977;BME280;36992;48.200;12.418;2023-02-10T04:55:18;98565.06;;;0.90;46.55
50977;BME280;36992;48.200;12.418;2023-02-10T04:57:45;98566.25;;;0.87;46.44
50977;BME280;36992;48.200;12.418;2023-02-10T05:00:13;98560.16;;;0.87;46.53
50977;BME280;36992;48.200;12.418;2023-02-10T05:02:41;98571.56;;;0.87;46.59
50977;BME280;36992;48.200;12.418;2023-02-10T05:05:09;98578.56;;;0.88;46.42
50977;BME280;36992;48.200;12.418;2023-02-10T05:07:36;98587.50;;;0.87;46.47
50977;BME280;36992;48.200;12.418;2023-02-10T05:10:03;98582.19;;;0.87;46.43
50977;BME280;36992;48.200;12.418;2023-02-10T05:12:30;98576.88;;;0.87;46.54
50977;BME280;36992;48.200;12.418;2023-02-10T05:14:57;98585.50;;;0.89;46.49
50977;BME280;36992;48.200;12.418;2023-02-10T05:17:23;98587.13;;;0.90;46.62
50977;BME280;36992;48.200;12.418;2023-02-10T05:19:51;98591.25;;;0.93;46.54
50977;BME280;36992;48.200;12.418;2023-02-10T05:22:17;98593.28;;;0.91;46.59
50977;BME280;36992;48.200;12.418;2023-02-10T05:24:44;98594.09;;;0.91;46.48
50977;BME280;36992;48.200;12.418;2023-02-10T05:27:10;98598.78;;;0.89;46.39
50977;BME280;36992;48.200;12.418;2023-02-10T05:29:37;98606.72;;;0.89;46.55
50977;BME280;36992;48.200;12.418;2023-02-10T05:32:03;98607.91;;;0.87;46.43
50977;BME280;36992;48.200;12.418;2023-02-10T05:34:30;98600.13;;;0.85;46.59
50977;BME280;36992;48.200;12.418;2023-02-10T05:36:57;98600.31;;;0.84;46.51
50977;BME280;36992;48.200;12.418;2023-02-10T05:39:24;98618.25;;;0.82;46.63
50977;BME280;36992;48.200;12.418;2023-02-10T05:41:51;98620.25;;;0.79;46.64
50977;BME280;36992;48.200;12.418;2023-02-10T05:44:18;98623.94;;;0.78;46.66
50977;BME280;36992;48.200;12.418;2023-02-10T05:46:45;98621.28;;;0.78;46.85
50977;BME280;36992;48.200;12.418;2023-02-10T05:49:11;98616.94;;;0.77;46.70
50977;BME280;36992;48.200;12.418;2023-02-10T05:51:38;98615.13;;;0.78;46.81
50977;BME280;36992;48.200;12.418;2023-02-10T05:54:06;98625.56;;;0.79;46.63
50977;BME280;36992;48.200;12.418;2023-02-10T05:56:33;98627.38;;;0.79;46.71
50977;BME280;36992;48.200;12.418;2023-02-10T05:58:59;98638.19;;;0.77;46.51
50977;BME280;36992;48.200;12.418;2023-02-10T06:01:26;98638.38;;;0.76;46.81
50977;BME280;36992;48.200;12.418;2023-02-10T06:03:53;98642.00;;;0.75;46.69
50977;BME280;36992;48.200;12.418;2023-02-10T06:06:19;98649.97;;;0.75;46.73
50977;BME280;36992;48.200;12.418;2023-02-10T06:08:46;98648.31;;;0.74;46.60
50977;BME280;36992;48.200;12.418;2023-02-10T06:11:14;98649.97;;;0.75;46.67
50977;BME280;36992;48.200;12.418;2023-02-10T06:13:40;98654.47;;;0.74;46.67
50977;BME280;36992;48.200;12.418;2023-02-10T06:16:08;98658.94;;;0.74;46.54
50977;BME280;36992;48.200;12.418;2023-02-10T06:18:36;98650.97;;;0.74;46.35
50977;BME280;36992;48.200;12.418;2023-02-10T06:21:03;98654.47;;;0.74;46.73
50977;BME280;36992;48.200;12.418;2023-02-10T06:23:29;98655.28;;;0.75;46.72
50977;BME280;36992;48.200;12.418;2023-02-10T06:25:56;98654.66;;;0.73;46.79
50977;BME280;36992;48.200;12.418;2023-02-10T06:28:26;98657.94;;;0.75;46.63
50977;BME280;36992;48.200;12.418;2023-02-10T06:30:53;98661.97;;;0.71;46.73
50977;BME280;36992;48.200;12.418;2023-02-10T06:33:20;98666.81;;;0.67;46.90
50977;BME280;36992;48.200;12.418;2023-02-10T06:35:47;98664.34;;;0.65;47.00
50977;BME280;36992;48.200;12.418;2023-02-10T06:38:13;98672.47;;;0.64;46.94
50977;BME280;36992;48.200;12.418;2023-02-10T06:40:40;98678.13;;;0.61;47.14
50977;BME280;36992;48.200;12.418;2023-02-10T06:43:06;98675.28;;;0.62;47.10
50977;BME280;36992;48.200;12.418;2023-02-10T06:45:34;98675.28;;;0.62;47.06
50977;BME280;36992;48.200;12.418;2023-02-10T06:48:01;98686.91;;;0.61;47.07
50977;BME280;36992;48.200;12.418;2023-02-10T06:50:28;98680.78;;;0.61;47.01
50977;BME280;36992;48.200;12.418;2023-02-10T06:52:55;98691.19;;;0.62;47.22
50977;BME280;36992;48.200;12.418;2023-02-10T06:55:21;98687.56;;;0.63;47.06
50977;BME280;36992;48.200;12.418;2023-02-10T06:57:48;98689.22;;;0.64;47.16
50977;BME280;36992;48.200;12.418;2023-02-10T07:00:15;98691.69;;;0.66;47.17
50977;BME280;36992;48.200;12.418;2023-02-10T07:02:43;98691.69;;;0.66;47.11
50977;BME280;36992;48.200;12.418;2023-02-10T07:05:10;98697.19;;;0.64;47.14
50977;BME280;36992;48.200;12.418;2023-02-10T07:07:37;98691.19;;;0.62;46.96
50977;BME280;36992;48.200;12.418;2023-02-10T07:10:05;98703.19;;;0.58;47.42
50977;BME280;36992;48.200;12.418;2023-02-10T07:12:31;98706.84;;;0.57;47.47
50977;BME280;36992;48.200;12.418;2023-02-10T07:14:58;98709.84;;;0.54;47.46
50977;BME280;36992;48.200;12.418;2023-02-10T07:17:24;98703.91;;;0.52;47.41
50977;BME280;36992;48.200;12.418;2023-02-10T07:19:52;98703.91;;;0.52;47.60
50977;BME280;36992;48.200;12.418;2023-02-10T07:22:19;98703.22;;;0.50;47.87
50977;BME280;36992;48.200;12.418;2023-02-10T07:24:46;98704.25;;;0.49;48.05
50977;BME280;36992;48.200;12.418;2023-02-10T07:27:12;98713.03;;;0.49;47.73
50977;BME280;36992;48.200;12.418;2023-02-10T07:29:39;98710.56;;;0.48;47.73
50977;BME280;36992;48.200;12.418;2023-02-10T07:32:05;98717.88;;;0.46;48.34
50977;BME280;36992;48.200;12.418;2023-02-10T07:34:32;98725.66;;;0.47;47.94
50977;BME280;36992;48.200;12.418;2023-02-10T07:37:01;98736.06;;;0.49;47.93
50977;BME280;36992;48.200;12.418;2023-02-10T07:39:27;98728.66;;;0.44;48.62
50977;BME280;36992;48.200;12.418;2023-02-10T07:41:54;98723.19;;;0.46;48.38
50977;BME280;36992;48.200;12.418;2023-02-10T07:44:20;98729.13;;;0.48;48.22
50977;BME280;36992;48.200;12.418;2023-02-10T07:46:47;98737.06;;;0.48;48.25
50977;BME280;36992;48.200;12.418;2023-02-10T07:49:13;98740.19;;;0.51;48.24
50977;BME280;36992;48.200;12.418;2023-02-10T07:51:40;98741.66;;;0.54;48.30
50977;BME280;36992;48.200;12.418;2023-02-10T07:54:09;98751.94;;;0.57;48.60
50977;BME280;36992;48.200;12.418;2023-02-10T07:56:36;98749.94;;;0.59;48.41
50977;BME280;36992;48.200;12.418;2023-02-10T07:59:03;98752.41;;;0.61;48.67
50977;BME280;36992;48.200;12.418;2023-02-10T08:01:29;98755.53;;;0.64;48.49
50977;BME280;36992;48.200;12.418;2023-02-10T08:03:56;98751.72;;;0.67;48.55
50977;BME280;36992;48.200;12.418;2023-02-10T08:06:25;98752.16;;;0.71;48.41
50977;BME280;36992;48.200;12.418;2023-02-10T08:08:52;98752.63;;;0.74;48.48
50977;BME280;36992;48.200;12.418;2023-02-10T08:11:19;98761.69;;;0.80;48.56
50977;BME280;36992;48.200;12.418;2023-02-10T08:13:46;98761.38;;;0.83;48.58
50977;BME280;36992;48.200;12.418;2023-02-10T08:16:12;98756.69;;;0.85;49.06
50977;BME280;36992;48.200;12.418;2023-02-10T08:18:39;98764.09;;;0.90;48.68
50977;BME280;36992;48.200;12.418;2023-02-10T08:21:06;98761.91;;;0.93;48.47
50977;BME280;36992;48.200;12.418;2023-02-10T08:23:33;98774.84;;;0.97;48.30
50977;BME280;36992;48.200;12.418;2023-02-10T08:26:02;98765.34;;;1.02;48.00
50977;BME280;36992;48.200;12.418;2023-02-10T08:28:30;98765.78;;;1.06;48.16
50977;BME280;36992;48.200;12.418;2023-02-10T08:30:58;98755.66;;;1.10;48.17
50977;BME280;36992;48.200;12.418;2023-02-10T08:33:25;98758.97;;;1.12;48.48
50977;BME280;36992;48.200;12.418;2023-02-10T08:35:51;98750.81;;;1.13;48.60
50977;BME280;36992;48.200;12.418;2023-02-10T08:38:18;98750.28;;;1.18;48.37
50977;BME280;36992;48.200;12.418;2023-02-10T08:40:44;98754.41;;;1.20;48.01
50977;BME280;36992;48.200;12.418;2023-02-10T08:43:11;98763.63;;;1.25;47.85
50977;BME280;36992;48.200;12.418;2023-02-10T08:45:38;98762.09;;;1.30;47.77
50977;BME280;36992;48.200;12.418;2023-02-10T08:48:05;98761.94;;;1.32;47.66
50977;BME280;36992;48.200;12.418;2023-02-10T08:50:32;98755.22;;;1.36;47.61
50977;BME280;36992;48.200;12.418;2023-02-10T08:52:58;98754.69;;;1.41;47.65
50977;BME280;36992;48.200;12.418;2023-02-10T08:55:24;98752.50;;;1.44;47.67
50977;BME280;36992;48.200;12.418;2023-02-10T08:57:51;98759.94;;;1.49;47.71
50977;BME280;36992;48.200;12.418;2023-02-10T09:00:18;98746.09;;;1.54;47.43
50977;BME280;36992;48.200;12.418;2023-02-10T09:02:48;98757.63;;;1.61;47.19
50977;BME280;36992;48.200;12.418;2023-02-10T09:05:14;98744.34;;;1.61;47.39
50977;BME280;36992;48.200;12.418;2023-02-10T09:07:41;98751.97;;;1.64;47.47
50977;BME280;36992;48.200;12.418;2023-02-10T09:10:08;98755.88;;;1.68;47.04
50977;BME280;36992;48.200;12.418;2023-02-10T09:12:35;98766.78;;;1.73;47.10
50977;BME280;36992;48.200;12.418;2023-02-10T09:15:02;98763.13;;;1.74;47.19
50977;BME280;36992;48.200;12.418;2023-02-10T09:17:29;98776.69;;;1.80;46.61
50977;BME280;36992;48.200;12.418;2023-02-10T09:19:57;98777.59;;;1.87;46.70
50977;BME280;36992;48.200;12.418;2023-02-10T09:22:23;98779.63;;;1.85;46.82
50977;BME280;36992;48.200;12.418;2023-02-10T09:24:50;98779.72;;;1.92;46.77
50977;BME280;36992;48.200;12.418;2023-02-10T09:27:18;98777.31;;;1.97;46.75
50977;BME280;36992;48.200;12.418;2023-02-10T09:29:45;98788.41;;;2.00;46.40
50977;BME280;36992;48.200;12.418;2023-02-10T09:32:11;98789.31;;;2.08;46.40
50977;BME280;36992;48.200;12.418;2023-02-10T09:34:38;98797.56;;;2.13;46.52
50977;BME280;36992;48.200;12.418;2023-02-10T09:37:06;98797.28;;;2.23;46.42
50977;BME280;36992;48.200;12.418;2023-02-10T09:39:33;98796.72;;;2.27;46.32
50977;BME280;36992;48.200;12.418;2023-02-10T09:42:05;98794.94;;;2.35;45.98
50977;BME280;36992;48.200;12.418;2023-02-10T09:44:34;98799.53;;;2.41;46.16
50977;BME280;36992;48.200;12.418;2023-02-10T09:47:15;98795.09;;;2.48;45.81
50977;BME280;36992;48.200;12.418;2023-02-10T09:50:03;98794.16;;;2.56;45.82
50977;BME280;36992;48.200;12.418;2023-02-10T09:52:41;98796.06;;;2.62;46.04
50977;BME280;36992;48.200;12.418;2023-02-10T09:55:15;98790.16;;;2.67;46.07
50977;BME280;36992;48.200;12.418;2023-02-10T09:57:43;98785.94;;;2.73;45.91
50977;BME280;36992;48.200;12.418;2023-02-10T10:00:21;98780.66;;;2.79;45.77
50977;BME280;36992;48.200;12.418;2023-02-10T10:02:52;98775.59;;;2.85;45.80
50977;BME280;36992;48.200;12.418;2023-02-10T10:05:25;98775.84;;;2.90;45.88
50977;BME280;36992;48.200;12.418;2023-02-10T10:07:58;98778.78;;;2.95;45.95
50977;BME280;36992;48.200;12.418;2023-02-10T10:10:30;98779.00;;;3.00;45.88
50977;BME280;36992;48.200;12.418;2023-02-10T10:12:58;98779.47;;;3.04;46.04
50977;BME280;36992;48.200;12.418;2023-02-10T10:15:31;98786.28;;;3.13;46.12
50977;BME280;36992;48.200;12.418;2023-02-10T10:18:10;98781.81;;;3.20;45.86
50977;BME280;36992;48.200;12.418;2023-02-10T10:20:47;98773.91;;;3.27;45.77
50977;BME280;36992;48.200;12.418;2023-02-10T10:23:31;98770.47;;;3.33;45.84
50977;BME280;36992;48.200;12.418;2023-02-10T10:26:10;98770.06;;;3.36;45.83
50977;BME280;36992;48.200;12.418;2023-02-10T10:28:49;98776.25;;;3.44;45.87
50977;BME280;36992;48.200;12.418;2023-02-10T10:31:24;98773.81;;;3.49;45.62
50977;BME280;36992;48.200;12.418;2023-02-10T10:33:54;98772.44;;;3.53;45.69
50977;BME280;36992;48.200;12.418;2023-02-10T10:36:27;98766.13;;;3.61;45.75
50977;BME280;36992;48.200;12.418;2023-02-10T10:39:00;98772.31;;;3.68;45.64
50977;BME280;36992;48.200;12.418;2023-02-10T10:41:30;98758.38;;;3.73;45.54
50977;BME280;36992;48.200;12.418;2023-02-10T10:43:58;98754.31;;;3.77;45.81
50977;BME280;36992;48.200;12.418;2023-02-10T10:46:28;98749.44;;;3.87;45.65
50977;BME280;36992;48.200;12.418;2023-02-10T10:48:57;98748.63;;;3.94;45.44
50977;BME280;36992;48.200;12.418;2023-02-10T10:51:23;98738.19;;;3.99;45.17
50977;BME280;36992;48.200;12.418;2023-02-10T10:53:52;98733.72;;;4.06;45.22
50977;BME280;36992;48.200;12.418;2023-02-10T10:56:26;98725.31;;;4.16;44.92
50977;BME280;36992;48.200;12.418;2023-02-10T10:58:56;98731.09;;;4.20;45.17
50977;BME280;36992;48.200;12.418;2023-02-10T11:01:32;98722.31;;;4.26;44.79
50977;BME280;36992;48.200;12.418;2023-02-10T11:04:04;98723.13;;;4.33;44.61
50977;BME280;36992;48.200;12.418;2023-02-10T11:06:33;98714.53;;;4.38;44.81
50977;BME280;36992;48.200;12.418;2023-02-10T11:09:03;98710.22;;;4.43;44.49
50977;BME280;36992;48.200;12.418;2023-02-10T11:11:34;98721.75;;;4.51;44.49
50977;BME280;36992;48.200;12.418;2023-02-10T11:14:01;98711.47;;;4.54;44.11
50977;BME280;36992;48.200;12.418;2023-02-10T11:16:29;98705.31;;;4.61;44.75
50977;BME280;36992;48.200;12.418;2023-02-10T11:18:57;98694.81;;;4.66;44.43
50977;BME280;36992;48.200;12.418;2023-02-10T11:21:33;98687.44;;;4.75;44.26
50977;BME280;36992;48.200;12.418;2023-02-10T11:24:00;98685.59;;;4.75;43.58
50977;BME280;36992;48.200;12.418;2023-02-10T11:26:27;98678.59;;;4.81;44.11
50977;BME280;36992;48.200;12.418;2023-02-10T11:28:55;98684.78;;;4.88;43.94
50977;BME280;36992;48.200;12.418;2023-02-10T11:31:28;98683.97;;;4.94;43.96
50977;BME280;36992;48.200;12.418;2023-02-10T11:33:58;98681.47;;;4.99;43.83
50977;BME280;36992;48.200;12.418;2023-02-10T11:36:33;98681.69;;;5.05;43.84
50977;BME280;36992;48.200;12.418;2023-02-10T11:39:03;98682.31;;;5.07;44.13
50977;BME280;36992;48.200;12.418;2023-02-10T11:41:30;98675.50;;;5.11;43.68
50977;BME280;36992;48.200;12.418;2023-02-10T11:44:00;98678.97;;;5.18;43.53
50977;BME280;36992;48.200;12.418;2023-02-10T11:46:29;98681.25;;;5.21;43.33
50977;BME280;36992;48.200;12.418;2023-02-10T11:48:57;98680.81;;;5.24;43.32
50977;BME280;36992;48.200;12.418;2023-02-10T11:51:24;98680.41;;;5.28;43.03
50977;BME280;36992;48.200;12.418;2023-02-10T11:53:51;98681.66;;;5.32;43.02
50977;BME280;36992;48.200;12.418;2023-02-10T11:56:20;98679.78;;;5.39;43.06
50977;BME280;36992;48.200;12.418;2023-02-10T11:59:19;98667.41;;;5.45;43.13
50977;BME280;36992;48.200;12.418;2023-02-10T12:01:51;98650.13;;;5.47;42.94
50977;BME280;36992;48.200;12.418;2023-02-10T12:04:34;98656.47;;;5.53;42.98
50977;BME280;36992;48.200;12.418;2023-02-10T12:07:09;98656.06;;;5.56;42.97
50977;BME280;36992;48.200;12.418;2023-02-10T12:09:47;98658.09;;;5.61;43.19
50977;BME280;36992;48.200;12.418;2023-02-10T12:12:27;98649.69;;;5.64;42.61
50977;BME280;36992;48.200;12.418;2023-02-10T12:15:06;98645.53;;;5.68;42.65
50977;BME280;36992;48.200;12.418;2023-02-10T12:17:41;98642.44;;;5.71;42.57
50977;BME280;36992;48.200;12.418;2023-02-10T12:20:25;98647.97;;;5.76;42.86
50977;BME280;36992;48.200;12.418;2023-02-10T12:26:02;98642.56;;;5.83;42.97
50977;BME280;36992;48.200;12.418;2023-02-10T12:28:39;98643.81;;;5.87;42.25
50977;BME280;36992;48.200;12.418;2023-02-10T12:31:18;98641.50;;;5.91;42.38
50977;BME280;36992;48.200;12.418;2023-02-10T12:34:07;98636.34;;;5.96;42.77
50977;BME280;36992;48.200;12.418;2023-02-10T12:36:41;98627.28;;;5.97;42.38
50977;BME280;36992;48.200;12.418;2023-02-10T12:39:13;98630.56;;;5.99;42.10
50977;BME280;36992;48.200;12.418;2023-02-10T12:41:47;98617.81;;;6.01;42.11
50977;BME280;36992;48.200;12.418;2023-02-10T12:44:31;98611.84;;;6.06;42.09
50977;BME280;36992;48.200;12.418;2023-02-10T12:47:11;98614.88;;;6.10;41.92
50977;BME280;36992;48.200;12.418;2023-02-10T12:49:51;98616.31;;;6.12;42.39
50977;BME280;36992;48.200;12.418;2023-02-10T12:52:26;98609.34;;;6.11;41.33
50977;BME280;36992;48.200;12.418;2023-02-10T12:54:57;98613.19;;;6.15;41.98
50977;BME280;36992;48.200;12.418;2023-02-10T12:57:28;98600.44;;;6.17;41.51
50977;BME280;36992;48.200;12.418;2023-02-10T12:59:59;98606.97;;;6.21;41.68
50977;BME280;36992;48.200;12.418;2023-02-10T13:02:36;98605.72;;;6.24;41.50
50977;BME280;36992;48.200;12.418;2023-02-10T13:05:07;98610.66;;;6.27;41.68
50977;BME280;36992;48.200;12.418;2023-02-10T13:07:40;98594.16;;;6.30;41.61
50977;BME280;36992;48.200;12.418;2023-02-10T13:10:18;98590.00;;;6.34;41.70
50977;BME280;36992;48.200;12.418;2023-02-10T13:12:50;98590.00;;;6.34;41.45
50977;BME280;36992;48.200;12.418;2023-02-10T13:15:24;98590.59;;;6.37;41.41